createdAt,value
2018-12-26T00:00:34.250Z,4.20
2018-12-26T00:01:34.380Z,5.20
2018-12-26T00:02:34.269Z,5.80
2018-12-26T00:03:34.267Z,5.00
2018-12-26T00:04:34.266Z,5.50
2018-12-26T00:05:34.278Z,6.40
2018-12-26T00:06:34.287Z,6.30
2018-12-26T00:07:34.338Z,5.70
2018-12-26T00:08:34.339Z,4.90
2018-12-26T00:09:34.286Z,5.70
2018-12-26T00:10:34.316Z,5.90
2018-12-26T00:11:34.369Z,5.20
2018-12-26T00:12:34.318Z,5.00
2018-12-26T00:13:34.335Z,5.50
2018-12-26T00:14:34.368Z,4.50
2018-12-26T00:15:34.317Z,4.90
2018-12-26T00:16:34.347Z,5.70
2018-12-26T00:17:34.326Z,4.30
2018-12-26T00:18:34.401Z,4.80
2018-12-26T00:19:34.444Z,7.10
2018-12-26T00:20:34.390Z,6.20
2018-12-26T00:21:34.347Z,6.70
2018-12-26T00:22:34.364Z,5.80
2018-12-26T00:23:34.366Z,7.10
2018-12-26T00:24:34.500Z,6.10
2018-12-26T00:25:34.375Z,4.70
2018-12-26T00:26:34.365Z,5.00
2018-12-26T00:27:34.379Z,6.60
2018-12-26T00:28:34.380Z,5.80
2018-12-26T00:29:34.452Z,6.80
2018-12-26T00:30:34.453Z,4.00
2018-12-26T00:31:34.425Z,6.10
2018-12-26T00:32:34.449Z,5.90
2018-12-26T00:33:34.402Z,4.80
2018-12-26T00:34:34.404Z,5.70
2018-12-26T00:35:34.448Z,5.90
2018-12-26T00:36:34.438Z,6.20
2018-12-26T00:37:34.415Z,4.80
2018-12-26T00:38:34.450Z,6.20
2018-12-26T00:39:34.433Z,5.10
2018-12-26T00:40:34.464Z,4.60
2018-12-26T00:41:34.485Z,4.80
2018-12-26T00:42:34.447Z,6.90
2018-12-26T00:43:34.444Z,6.30
2018-12-26T00:44:34.447Z,8.60
2018-12-26T00:45:34.454Z,5.60
2018-12-26T00:46:34.493Z,6.30
2018-12-26T00:47:34.467Z,5.50
2018-12-26T00:48:34.475Z,5.10
2018-12-26T00:49:34.485Z,5.10
2018-12-26T00:50:34.496Z,7.30
2018-12-26T00:51:34.577Z,4.90
2018-12-26T00:52:34.504Z,5.50
2018-12-26T00:53:34.505Z,6.80
2018-12-26T00:54:34.500Z,5.30
2018-12-26T00:55:34.518Z,6.20
2018-12-26T00:56:34.522Z,7.00
2018-12-26T00:57:34.556Z,6.40
2018-12-26T00:58:34.516Z,6.10
2018-12-26T00:59:34.536Z,5.50
2018-12-26T01:00:34.537Z,6.10
2018-12-26T01:01:34.561Z,5.80
2018-12-26T01:02:34.529Z,7.10
2018-12-26T01:03:34.577Z,6.10
2018-12-26T01:04:34.552Z,4.70
2018-12-26T01:05:34.561Z,6.30
2018-12-26T01:06:34.552Z,6.60
2018-12-26T01:07:34.567Z,6.30
2018-12-26T01:08:34.629Z,6.00
2018-12-26T01:09:34.576Z,5.90
2018-12-26T01:10:34.683Z,6.60
2018-12-26T01:11:34.580Z,7.30
2018-12-26T01:12:34.587Z,11.00
2018-12-26T01:13:34.713Z,7.90
2018-12-26T01:14:34.610Z,5.40
2018-12-26T01:15:34.601Z,5.30
2018-12-26T01:16:34.635Z,5.20
2018-12-26T01:17:34.599Z,5.10
2018-12-26T01:18:34.646Z,4.90
2018-12-26T01:19:34.643Z,4.40
2018-12-26T01:20:34.618Z,6.20
2018-12-26T01:21:34.662Z,5.50
2018-12-26T01:22:34.633Z,5.50
2018-12-26T01:23:34.626Z,5.20
2018-12-26T01:24:34.666Z,4.60
2018-12-26T01:25:34.671Z,6.20
2018-12-26T01:26:34.706Z,6.30
2018-12-26T01:27:34.659Z,6.40
2018-12-26T01:28:34.652Z,6.40
2018-12-26T01:29:34.663Z,6.20
2018-12-26T01:30:34.686Z,5.30
2018-12-26T01:31:34.696Z,6.00
2018-12-26T01:32:34.692Z,6.40
2018-12-26T01:33:34.689Z,5.40
2018-12-26T01:34:34.711Z,7.50
2018-12-26T01:35:34.701Z,6.50
2018-12-26T01:36:34.765Z,6.30
2018-12-26T01:37:34.706Z,5.90
2018-12-26T01:38:34.719Z,5.70
2018-12-26T01:39:34.717Z,4.80
2018-12-26T01:40:34.712Z,6.70
2018-12-26T01:41:34.714Z,7.00
2018-12-26T01:42:34.786Z,5.90
2018-12-26T01:43:34.719Z,5.10
2018-12-26T01:44:34.735Z,7.00
2018-12-26T01:45:34.736Z,5.70
2018-12-26T01:46:34.765Z,6.40
2018-12-26T01:47:34.766Z,5.90
2018-12-26T01:48:34.763Z,7.80
2018-12-26T01:49:34.768Z,6.70
2018-12-26T01:50:34.812Z,7.40
2018-12-26T01:51:34.761Z,6.40
2018-12-26T01:52:34.811Z,6.50
2018-12-26T01:53:34.775Z,7.00
2018-12-26T01:54:34.785Z,4.80
2018-12-26T01:55:34.774Z,5.80
2018-12-26T01:56:34.793Z,4.70
2018-12-26T01:57:34.814Z,5.40
2018-12-26T01:58:34.804Z,5.40
2018-12-26T01:59:34.798Z,9.00
2018-12-26T02:00:34.895Z,5.40
2018-12-26T02:01:34.830Z,6.40
2018-12-26T02:02:34.831Z,5.40
2018-12-26T02:03:34.844Z,6.60
2018-12-26T02:04:34.823Z,7.40
2018-12-26T02:05:34.869Z,7.40
2018-12-26T02:06:34.851Z,5.20
2018-12-26T02:07:34.858Z,6.80
2018-12-26T02:08:34.850Z,6.20
2018-12-26T02:09:34.845Z,6.70
2018-12-26T02:10:34.869Z,6.30
2018-12-26T02:11:34.850Z,5.40
2018-12-26T02:12:34.902Z,6.70
2018-12-26T02:13:34.871Z,6.40
2018-12-26T02:14:34.881Z,5.40
2018-12-26T02:15:34.871Z,5.20
2018-12-26T02:16:34.875Z,6.70
2018-12-26T02:17:35.003Z,6.60
2018-12-26T02:18:34.902Z,5.80
2018-12-26T02:19:34.899Z,6.50
2018-12-26T02:20:34.901Z,5.70
2018-12-26T02:21:34.910Z,6.50
2018-12-26T02:22:34.905Z,5.20
2018-12-26T02:23:34.965Z,5.60
2018-12-26T02:24:34.920Z,5.90
2018-12-26T02:25:34.923Z,5.90
2018-12-26T02:26:36.483Z,7.00
2018-12-26T02:27:34.929Z,4.70
2018-12-26T02:28:34.996Z,5.90
2018-12-26T02:29:34.941Z,5.30
2018-12-26T02:30:34.960Z,7.10
2018-12-26T02:31:34.959Z,7.00
2018-12-26T02:32:34.969Z,5.40
2018-12-26T02:33:35.023Z,5.10
2018-12-26T02:34:34.971Z,5.80
2018-12-26T02:35:34.979Z,5.50
2018-12-26T02:36:34.982Z,6.90
2018-12-26T02:37:35.577Z,5.70
2018-12-26T02:38:35.010Z,6.30
2018-12-26T02:39:35.001Z,6.70
2018-12-26T02:40:35.037Z,5.00
2018-12-26T02:41:35.014Z,4.70
2018-12-26T02:42:35.002Z,6.50
2018-12-26T02:43:35.011Z,4.70
2018-12-26T02:44:35.001Z,7.30
2018-12-26T02:45:35.009Z,4.80
2018-12-26T02:46:35.072Z,5.60
2018-12-26T02:47:35.029Z,5.60
2018-12-26T02:48:35.045Z,6.30
2018-12-26T02:49:35.075Z,6.10
2018-12-26T02:50:35.053Z,4.80
2018-12-26T02:51:35.048Z,6.00
2018-12-26T02:52:35.052Z,5.80
2018-12-26T02:53:35.062Z,6.00
2018-12-26T02:54:35.118Z,7.40
2018-12-26T02:55:35.070Z,7.10
2018-12-26T02:56:35.082Z,5.70
2018-12-26T02:57:35.117Z,6.80
2018-12-26T02:58:35.079Z,5.50
2018-12-26T02:59:35.102Z,6.60
2018-12-26T03:00:35.109Z,6.10
2018-12-26T03:01:35.118Z,6.90
2018-12-26T03:02:35.092Z,5.80
2018-12-26T03:03:35.163Z,6.30
2018-12-26T03:04:35.139Z,7.00
2018-12-26T03:05:35.156Z,8.10
2018-12-26T03:06:35.144Z,9.00
2018-12-26T03:07:35.134Z,5.90
2018-12-26T03:08:35.117Z,7.00
2018-12-26T03:09:35.225Z,6.50
2018-12-26T03:10:35.132Z,6.80
2018-12-26T03:11:35.139Z,9.60
2018-12-26T03:12:35.145Z,8.60
2018-12-26T03:13:35.154Z,11.70
2018-12-26T03:14:35.186Z,6.90
2018-12-26T03:15:35.215Z,8.60
2018-12-26T03:16:35.158Z,6.90
2018-12-26T03:17:35.159Z,10.90
2018-12-26T03:18:35.190Z,6.70
2018-12-26T03:19:35.167Z,7.90
2018-12-26T03:20:35.216Z,6.60
2018-12-26T03:21:35.197Z,7.10
2018-12-26T03:22:35.184Z,9.80
2018-12-26T03:23:35.189Z,7.70
2018-12-26T03:24:35.192Z,7.30
2018-12-26T03:25:35.263Z,7.80
2018-12-26T03:26:35.216Z,8.30
2018-12-26T03:27:35.222Z,7.70
2018-12-26T03:28:35.235Z,8.70
2018-12-26T03:29:35.219Z,8.80
2018-12-26T03:30:35.233Z,8.80
2018-12-26T03:31:35.292Z,8.70
2018-12-26T03:32:35.253Z,8.50
2018-12-26T03:33:35.252Z,8.70
2018-12-26T03:34:35.251Z,9.30
2018-12-26T03:35:35.256Z,9.50
2018-12-26T03:36:35.253Z,9.80
2018-12-26T03:37:35.288Z,10.20
2018-12-26T03:38:35.263Z,9.90
2018-12-26T03:39:35.272Z,9.20
2018-12-26T03:40:35.332Z,10.00
2018-12-26T03:41:35.273Z,10.60
2018-12-26T03:42:35.342Z,11.20
2018-12-26T03:43:35.289Z,10.80
2018-12-26T03:44:35.306Z,11.20
2018-12-26T03:45:35.304Z,12.10
2018-12-26T03:46:35.321Z,11.30
2018-12-26T03:47:35.312Z,11.40
2018-12-26T03:48:35.328Z,11.80
2018-12-26T03:49:35.306Z,11.80
2018-12-26T03:50:35.318Z,11.60
2018-12-26T03:51:35.329Z,12.00
2018-12-26T03:52:35.335Z,12.60
2018-12-26T03:53:35.387Z,12.80
2018-12-26T03:54:35.341Z,12.50
2018-12-26T03:55:35.382Z,12.20
2018-12-26T03:56:35.340Z,12.60
2018-12-26T03:57:35.358Z,13.50
2018-12-26T03:58:35.363Z,12.90
2018-12-26T03:59:35.416Z,13.00
2018-12-26T04:00:35.367Z,13.00
2018-12-26T04:01:35.363Z,13.00
2018-12-26T04:02:35.502Z,13.00
2018-12-26T04:03:35.387Z,13.80
2018-12-26T04:04:35.387Z,14.00
2018-12-26T04:05:35.474Z,13.20
2018-12-26T04:06:35.421Z,14.10
2018-12-26T04:07:35.399Z,14.80
2018-12-26T04:08:35.396Z,14.40
2018-12-26T04:09:35.420Z,15.00
2018-12-26T04:10:35.407Z,14.60
2018-12-26T04:11:35.485Z,14.90
2018-12-26T04:12:35.427Z,14.50
2018-12-26T04:13:35.438Z,15.10
2018-12-26T04:14:35.425Z,15.40
2018-12-26T04:15:35.460Z,15.60
2018-12-26T04:16:35.504Z,15.10
2018-12-26T04:17:35.457Z,15.80
2018-12-26T04:18:35.458Z,15.90
2018-12-26T04:19:35.461Z,16.30
2018-12-26T04:20:35.520Z,15.60
2018-12-26T04:21:35.502Z,16.30
2018-12-26T04:22:35.471Z,16.20
2018-12-26T04:23:35.479Z,16.20
2018-12-26T04:24:35.477Z,16.70
2018-12-26T04:25:35.479Z,17.00
2018-12-26T04:26:35.565Z,17.10
2018-12-26T04:27:35.492Z,17.20
2018-12-26T04:28:35.511Z,17.70
2018-12-26T04:29:35.514Z,17.00
2018-12-26T04:30:35.508Z,17.00
2018-12-26T04:31:35.540Z,17.60
2018-12-26T04:32:35.512Z,17.30
2018-12-26T04:33:35.541Z,17.90
2018-12-26T04:34:35.549Z,17.60
2018-12-26T04:35:35.529Z,17.40
2018-12-26T04:36:35.595Z,17.80
2018-12-26T04:37:35.578Z,17.90
2018-12-26T04:38:35.550Z,17.80
2018-12-26T04:39:35.542Z,18.70
2018-12-26T04:40:35.560Z,18.00
2018-12-26T04:41:35.549Z,18.20
2018-12-26T04:42:35.587Z,18.40
2018-12-26T04:43:35.568Z,18.30
2018-12-26T04:44:35.574Z,18.50
2018-12-26T04:45:35.598Z,17.90
2018-12-26T04:46:35.573Z,18.10
2018-12-26T04:47:35.630Z,18.30
2018-12-26T04:48:35.584Z,18.40
2018-12-26T04:49:35.605Z,18.00
2018-12-26T04:50:35.614Z,18.40
2018-12-26T04:51:35.595Z,18.20
2018-12-26T04:52:35.603Z,17.70
2018-12-26T04:53:35.641Z,17.80
2018-12-26T04:54:35.633Z,17.60
2018-12-26T04:55:36.262Z,18.10
2018-12-26T04:56:35.634Z,18.20
2018-12-26T04:57:35.629Z,17.90
2018-12-26T04:58:35.688Z,17.50
2018-12-26T04:59:35.650Z,17.70
2018-12-26T05:00:35.640Z,17.50
2018-12-26T05:01:35.664Z,17.10
2018-12-26T05:02:35.655Z,17.50
2018-12-26T05:03:35.680Z,18.10
2018-12-26T05:04:35.679Z,18.30
2018-12-26T05:05:35.671Z,17.60
2018-12-26T05:06:35.690Z,18.20
2018-12-26T05:07:35.694Z,17.80
2018-12-26T05:08:35.700Z,17.80
2018-12-26T05:09:35.735Z,18.50
2018-12-26T05:10:35.695Z,17.80
2018-12-26T05:11:35.712Z,17.80
2018-12-26T05:12:35.721Z,18.20
2018-12-26T05:13:35.720Z,18.10
2018-12-26T05:14:35.726Z,18.80
2018-12-26T05:15:35.769Z,17.60
2018-12-26T05:16:35.724Z,18.50
2018-12-26T05:17:35.757Z,18.10
2018-12-26T05:18:35.725Z,18.80
2018-12-26T05:19:35.746Z,18.80
2018-12-26T05:20:35.746Z,18.10
2018-12-26T05:21:35.785Z,19.00
2018-12-26T05:22:35.764Z,18.40
2018-12-26T05:23:35.760Z,18.30
2018-12-26T05:24:35.760Z,18.30
2018-12-26T05:25:35.770Z,18.50
2018-12-26T05:26:35.796Z,17.80
2018-12-26T05:27:35.774Z,18.70
2018-12-26T05:28:35.772Z,19.10
2018-12-26T05:29:35.794Z,18.40
2018-12-26T05:30:35.785Z,18.90
2018-12-26T05:31:35.844Z,18.50
2018-12-26T05:32:35.797Z,18.70
2018-12-26T05:33:35.817Z,17.70
2018-12-26T05:34:35.811Z,19.30
2018-12-26T05:35:35.823Z,18.20
2018-12-26T05:36:35.806Z,18.40
2018-12-26T05:37:35.880Z,18.60
2018-12-26T05:38:35.895Z,18.30
2018-12-26T05:39:35.822Z,17.80
2018-12-26T05:40:35.856Z,16.90
2018-12-26T05:41:35.826Z,17.30
2018-12-26T05:42:35.860Z,17.70
2018-12-26T05:43:35.905Z,17.50
2018-12-26T05:44:35.846Z,17.60
2018-12-26T05:45:35.856Z,17.70
2018-12-26T05:46:35.889Z,17.50
2018-12-26T05:47:35.854Z,17.60
2018-12-26T05:48:35.861Z,18.30
2018-12-26T05:49:35.914Z,18.10
2018-12-26T05:50:35.885Z,17.80
2018-12-26T05:51:35.877Z,18.10
2018-12-26T05:52:35.912Z,19.00
2018-12-26T05:53:35.902Z,19.10
2018-12-26T05:54:35.894Z,19.10
2018-12-26T05:55:36.563Z,18.50
2018-12-26T05:56:35.905Z,18.50
2018-12-26T05:57:42.817Z,19.20
2018-12-26T05:58:35.970Z,18.80
2018-12-26T05:59:35.944Z,19.30
2018-12-26T06:00:35.921Z,19.90
2018-12-26T06:01:35.932Z,19.60
2018-12-26T06:02:35.944Z,19.60
2018-12-26T06:03:35.947Z,20.40
2018-12-26T06:04:35.969Z,19.60
2018-12-26T06:05:35.946Z,19.40
2018-12-26T06:06:35.953Z,19.70
2018-12-26T06:07:35.961Z,20.10
2018-12-26T06:08:35.967Z,20.30
2018-12-26T06:09:36.013Z,20.10
2018-12-26T06:10:35.961Z,20.70
2018-12-26T06:11:35.981Z,21.00
2018-12-26T06:12:36.006Z,20.00
2018-12-26T06:13:35.982Z,21.10
2018-12-26T06:14:35.997Z,20.70
2018-12-26T06:15:36.007Z,21.70
2018-12-26T06:16:36.006Z,21.60
2018-12-26T06:17:36.011Z,20.90
2018-12-26T06:18:36.036Z,21.50
2018-12-26T06:19:36.019Z,21.00
2018-12-26T06:20:36.075Z,22.30
2018-12-26T06:21:36.027Z,22.20
2018-12-26T06:22:36.017Z,22.90
2018-12-26T06:23:36.048Z,22.70
2018-12-26T06:24:36.030Z,22.40
2018-12-26T06:25:36.056Z,21.90
2018-12-26T06:26:36.081Z,22.60
2018-12-26T06:27:36.043Z,22.10
2018-12-26T06:28:36.053Z,21.70
2018-12-26T06:29:36.063Z,21.90
2018-12-26T06:30:36.089Z,22.60
2018-12-26T06:31:36.094Z,22.70
2018-12-26T06:32:36.106Z,22.80
2018-12-26T06:33:36.116Z,21.40
2018-12-26T06:34:36.088Z,22.50
2018-12-26T06:35:36.076Z,22.30
2018-12-26T06:36:36.134Z,22.80
2018-12-26T06:37:36.090Z,22.30
2018-12-26T06:38:36.111Z,22.40
2018-12-26T06:39:36.104Z,23.00
2018-12-26T06:40:36.109Z,22.30
2018-12-26T06:41:36.144Z,21.70
2018-12-26T06:42:36.143Z,21.90
2018-12-26T06:43:36.129Z,21.90
2018-12-26T06:44:36.128Z,22.10
2018-12-26T06:45:36.133Z,21.60
2018-12-26T06:46:36.132Z,21.90
2018-12-26T06:47:36.135Z,22.90
2018-12-26T06:48:36.182Z,22.40
2018-12-26T06:49:36.164Z,22.90
2018-12-26T06:50:36.163Z,22.10
2018-12-26T06:51:36.170Z,22.00
2018-12-26T06:52:36.164Z,21.60
2018-12-26T06:53:36.188Z,21.90
2018-12-26T06:54:36.190Z,22.70
2018-12-26T06:55:36.214Z,21.60
2018-12-26T06:56:36.175Z,22.40
2018-12-26T06:57:36.184Z,22.30
2018-12-26T06:58:36.214Z,22.20
2018-12-26T06:59:36.212Z,22.70
2018-12-26T07:00:36.238Z,22.10
2018-12-26T07:01:36.229Z,21.60
2018-12-26T07:02:36.206Z,22.70
2018-12-26T07:03:36.259Z,21.90
2018-12-26T07:04:36.222Z,22.40
2018-12-26T07:05:36.235Z,21.50
2018-12-26T07:06:36.232Z,22.70
2018-12-26T07:07:36.262Z,22.40
2018-12-26T07:08:36.258Z,22.50
2018-12-26T07:09:36.294Z,22.10
2018-12-26T07:10:36.257Z,21.90
2018-12-26T07:11:36.267Z,21.80
2018-12-26T07:12:36.263Z,23.10
2018-12-26T07:13:36.276Z,22.10
2018-12-26T07:14:36.264Z,22.90
2018-12-26T07:15:36.286Z,22.80
2018-12-26T07:16:36.296Z,22.80
2018-12-26T07:17:36.285Z,22.20
2018-12-26T07:18:36.292Z,23.00
2018-12-26T07:19:36.306Z,22.40
2018-12-26T07:20:36.380Z,22.90
2018-12-26T07:21:36.310Z,22.80
2018-12-26T07:22:36.311Z,23.50
2018-12-26T07:23:36.332Z,22.60
2018-12-26T07:24:36.336Z,22.00
2018-12-26T07:25:36.311Z,22.40
2018-12-26T07:26:36.354Z,22.30
2018-12-26T07:27:36.400Z,22.10
2018-12-26T07:28:36.345Z,23.30
2018-12-26T07:29:36.349Z,23.20
2018-12-26T07:30:36.356Z,22.00
2018-12-26T07:31:36.342Z,22.60
2018-12-26T07:32:36.381Z,22.40
2018-12-26T07:33:36.358Z,22.70
2018-12-26T07:34:42.186Z,22.60
2018-12-26T07:35:36.358Z,22.60
2018-12-26T07:36:36.362Z,22.30
2018-12-26T07:37:36.401Z,22.00
2018-12-26T07:38:36.391Z,22.60
2018-12-26T07:39:36.381Z,22.90
2018-12-26T07:40:36.392Z,22.20
2018-12-26T07:41:36.405Z,23.10
2018-12-26T07:42:36.479Z,22.10
2018-12-26T07:43:36.417Z,22.20
2018-12-26T07:44:36.415Z,22.60
2018-12-26T07:45:36.427Z,22.70
2018-12-26T07:46:36.426Z,21.80
2018-12-26T07:47:36.432Z,22.20
2018-12-26T07:48:36.458Z,22.60
2018-12-26T07:49:36.448Z,23.20
2018-12-26T07:50:36.430Z,22.40
2018-12-26T07:51:36.447Z,21.80
2018-12-26T07:52:36.470Z,21.60
2018-12-26T07:53:36.461Z,21.30
2018-12-26T07:54:36.492Z,25.20
2018-12-26T07:55:36.473Z,23.10
2018-12-26T07:56:36.461Z,23.10
2018-12-26T07:57:36.491Z,22.70
2018-12-26T07:58:36.481Z,22.80
2018-12-26T07:59:37.715Z,22.90
2018-12-26T08:00:36.527Z,22.70
2018-12-26T08:01:36.499Z,22.40
2018-12-26T08:02:36.510Z,22.70
2018-12-26T08:03:36.503Z,21.70
2018-12-26T08:04:36.517Z,21.70
2018-12-26T08:05:36.517Z,21.80
2018-12-26T08:06:36.544Z,22.00
2018-12-26T08:07:36.533Z,21.90
2018-12-26T08:08:36.528Z,22.30
2018-12-26T08:09:36.534Z,22.00
2018-12-26T08:10:36.521Z,22.20
2018-12-26T08:11:36.581Z,22.10
2018-12-26T08:12:36.533Z,21.10
2018-12-26T08:13:36.556Z,21.90
2018-12-26T08:14:36.564Z,21.50
2018-12-26T08:15:36.565Z,25.50
2018-12-26T08:16:36.574Z,22.50
2018-12-26T08:17:36.604Z,22.00
2018-12-26T08:18:36.611Z,21.50
2018-12-26T08:19:36.567Z,21.80
2018-12-26T08:20:36.593Z,21.70
2018-12-26T08:21:36.586Z,20.80
2018-12-26T08:22:36.624Z,21.60
2018-12-26T08:23:36.592Z,21.30
2018-12-26T08:24:36.612Z,22.00
2018-12-26T08:25:36.597Z,21.60
2018-12-26T08:26:36.609Z,22.20
2018-12-26T08:27:36.650Z,21.40
2018-12-26T08:28:36.619Z,21.90
2018-12-26T08:29:36.630Z,21.10
2018-12-26T08:30:36.647Z,21.20
2018-12-26T08:31:36.632Z,22.70
2018-12-26T08:32:36.663Z,21.80
2018-12-26T08:33:36.637Z,22.50
2018-12-26T08:34:37.556Z,21.60
2018-12-26T08:35:36.674Z,21.70
2018-12-26T08:36:36.647Z,21.70
2018-12-26T08:37:36.706Z,21.70
2018-12-26T08:38:36.674Z,21.60
2018-12-26T08:39:36.664Z,20.60
2018-12-26T08:40:36.676Z,21.70
2018-12-26T08:41:36.679Z,22.60
2018-12-26T08:42:36.693Z,21.80
2018-12-26T08:43:36.711Z,21.80
2018-12-26T08:44:36.698Z,21.60
2018-12-26T08:45:36.714Z,22.10
2018-12-26T08:46:36.706Z,21.40
2018-12-26T08:47:36.716Z,23.10
2018-12-26T08:48:36.704Z,22.40
2018-12-26T08:49:36.739Z,21.50
2018-12-26T08:50:36.754Z,22.30
2018-12-26T08:51:36.724Z,22.30
2018-12-26T08:52:36.728Z,21.40
2018-12-26T08:53:36.738Z,22.50
2018-12-26T08:54:36.777Z,22.10
2018-12-26T08:55:36.749Z,21.20
2018-12-26T08:56:36.760Z,21.60
2018-12-26T08:57:36.906Z,22.90
2018-12-26T08:58:36.764Z,22.60
2018-12-26T08:59:36.775Z,23.10
2018-12-26T09:00:36.787Z,22.50
2018-12-26T09:01:36.800Z,22.20
2018-12-26T09:02:36.799Z,21.40
2018-12-26T09:03:36.791Z,22.20
2018-12-26T09:04:36.804Z,21.90
2018-12-26T09:05:36.856Z,22.00
2018-12-26T09:06:36.818Z,21.60
2018-12-26T09:07:36.799Z,21.60
2018-12-26T09:08:36.804Z,21.40
2018-12-26T09:09:36.802Z,21.00
2018-12-26T09:10:36.836Z,21.40
2018-12-26T09:11:36.838Z,40.70
2018-12-26T09:12:36.925Z,28.60
2018-12-26T09:13:36.882Z,21.70
2018-12-26T09:14:36.835Z,21.50
2018-12-26T09:15:36.890Z,20.70
2018-12-26T09:16:36.972Z,20.60
2018-12-26T09:17:36.987Z,21.20
2018-12-26T09:18:36.843Z,20.30
2018-12-26T09:19:36.858Z,21.00
2018-12-26T09:20:36.862Z,21.00
2018-12-26T09:21:37.315Z,20.70
2018-12-26T09:22:37.512Z,20.80
2018-12-26T09:23:36.879Z,20.60
2018-12-26T09:24:37.863Z,21.20
2018-12-26T09:25:36.951Z,20.30
2018-12-26T09:26:36.907Z,21.20
2018-12-26T09:27:36.951Z,20.70
2018-12-26T09:28:43.731Z,20.40
2018-12-26T09:29:36.915Z,19.50
2018-12-26T09:30:37.049Z,19.40
2018-12-26T09:31:36.930Z,18.50
2018-12-26T09:32:36.915Z,17.50
2018-12-26T09:33:44.019Z,17.70
2018-12-26T09:34:38.093Z,17.80
2018-12-26T09:35:37.041Z,17.90
2018-12-26T09:36:37.114Z,18.70
2018-12-26T09:37:37.919Z,18.90
2018-12-26T09:38:36.972Z,17.90
2018-12-26T09:39:36.952Z,16.90
2018-12-26T09:40:41.118Z,16.90
2018-12-26T09:41:36.999Z,17.20
2018-12-26T09:42:37.446Z,15.30
2018-12-26T09:43:38.296Z,15.60
2018-12-26T09:44:37.056Z,16.00
2018-12-26T09:45:37.141Z,15.80
2018-12-26T09:46:37.049Z,15.30
2018-12-26T09:47:37.018Z,15.70
2018-12-26T09:48:38.670Z,14.50
2018-12-26T09:49:37.081Z,14.30
2018-12-26T09:50:37.028Z,14.60
2018-12-26T09:51:37.051Z,13.60
2018-12-26T09:52:37.034Z,13.50
2018-12-26T09:53:37.056Z,13.10
2018-12-26T09:54:37.029Z,12.70
2018-12-26T09:55:37.586Z,12.60
2018-12-26T09:56:37.042Z,12.80
2018-12-26T09:57:37.065Z,14.00
2018-12-26T09:58:37.134Z,13.30
2018-12-26T09:59:37.142Z,12.80
2018-12-26T10:00:37.066Z,12.70
2018-12-26T10:01:37.068Z,12.30
2018-12-26T10:02:37.095Z,12.10
2018-12-26T10:03:37.078Z,13.00
2018-12-26T10:04:37.080Z,12.70
2018-12-26T10:05:37.075Z,12.40
2018-12-26T10:06:37.099Z,12.40
2018-12-26T10:07:37.155Z,12.20
2018-12-26T10:08:37.126Z,11.20
2018-12-26T10:09:37.099Z,11.80
2018-12-26T10:10:37.111Z,12.10
2018-12-26T10:11:37.110Z,11.70
2018-12-26T10:12:37.153Z,11.50
2018-12-26T10:13:37.126Z,11.50
2018-12-26T10:14:37.159Z,12.20
2018-12-26T10:15:37.131Z,11.20
2018-12-26T10:16:37.133Z,11.20
2018-12-26T10:17:37.134Z,11.00
2018-12-26T10:18:37.241Z,11.30
2018-12-26T10:19:37.151Z,11.50
2018-12-26T10:20:37.163Z,11.70
2018-12-26T10:21:37.170Z,11.30
2018-12-26T10:22:37.163Z,11.90
2018-12-26T10:23:37.169Z,11.30
2018-12-26T10:24:37.201Z,13.10
2018-12-26T10:25:37.192Z,10.70
2018-12-26T10:26:37.194Z,11.50
2018-12-26T10:27:37.212Z,13.30
2018-12-26T10:28:37.256Z,11.30
2018-12-26T10:29:37.203Z,10.80
2018-12-26T10:30:37.336Z,10.80
2018-12-26T10:31:37.703Z,11.20
2018-12-26T10:32:37.550Z,11.80
2018-12-26T10:33:37.233Z,10.90
2018-12-26T10:34:37.241Z,11.00
2018-12-26T10:35:37.226Z,11.40
2018-12-26T10:36:37.267Z,11.10
2018-12-26T10:37:37.230Z,11.20
2018-12-26T10:38:37.273Z,11.70
2018-12-26T10:39:37.239Z,11.70
2018-12-26T10:40:37.255Z,11.40
2018-12-26T10:41:38.206Z,11.00
2018-12-26T10:42:37.266Z,11.60
2018-12-26T10:43:37.290Z,11.20
2018-12-26T10:44:37.269Z,12.70
2018-12-26T10:45:37.268Z,11.40
2018-12-26T10:46:37.289Z,10.90
2018-12-26T10:47:37.284Z,11.00
2018-12-26T10:48:37.440Z,10.80
2018-12-26T10:49:37.288Z,10.90
2018-12-26T10:50:37.293Z,11.00
2018-12-26T10:51:37.302Z,11.30
2018-12-26T10:52:37.329Z,11.60
2018-12-26T10:53:37.328Z,11.60
2018-12-26T10:54:37.378Z,11.40
2018-12-26T10:55:37.330Z,11.50
2018-12-26T10:56:37.365Z,14.20
2018-12-26T10:57:37.351Z,11.50
2018-12-26T10:58:37.357Z,11.70
2018-12-26T10:59:37.530Z,11.10
2018-12-26T11:00:37.377Z,12.60
2018-12-26T11:01:37.467Z,11.00
2018-12-26T11:02:37.374Z,11.70
2018-12-26T11:03:37.391Z,11.00
2018-12-26T11:04:37.398Z,10.70
2018-12-26T11:05:37.381Z,11.40
2018-12-26T11:06:37.383Z,12.40
2018-12-26T11:07:38.236Z,12.30
2018-12-26T11:08:37.385Z,12.40
2018-12-26T11:09:37.481Z,12.40
2018-12-26T11:10:37.400Z,11.90
2018-12-26T11:11:37.416Z,12.50
2018-12-26T11:12:37.406Z,13.20
2018-12-26T11:13:37.421Z,12.70
2018-12-26T11:14:37.420Z,12.00
2018-12-26T11:15:37.513Z,12.00
2018-12-26T11:16:37.433Z,12.00
2018-12-26T11:17:37.543Z,11.70
2018-12-26T11:18:37.556Z,12.20
2018-12-26T11:19:37.478Z,12.40
2018-12-26T11:20:37.461Z,13.60
2018-12-26T11:21:37.541Z,13.20
2018-12-26T11:22:37.454Z,13.20
2018-12-26T11:23:37.469Z,12.80
2018-12-26T11:24:37.469Z,11.90
2018-12-26T11:25:38.659Z,13.00
2018-12-26T11:26:37.668Z,12.80
2018-12-26T11:27:37.511Z,12.50
2018-12-26T11:28:37.590Z,12.00
2018-12-26T11:29:37.535Z,12.70
2018-12-26T11:30:37.495Z,13.00
2018-12-26T11:31:37.507Z,12.70
2018-12-26T11:32:37.531Z,12.20
2018-12-26T11:33:37.512Z,12.80
2018-12-26T11:34:37.523Z,12.40
2018-12-26T11:35:37.551Z,12.70
2018-12-26T11:36:37.551Z,12.30
2018-12-26T11:37:37.542Z,12.20
2018-12-26T11:38:37.530Z,12.50
2018-12-26T11:39:37.533Z,13.10
2018-12-26T11:40:37.554Z,13.50
2018-12-26T11:41:37.617Z,13.50
2018-12-26T11:42:37.579Z,13.60
2018-12-26T11:43:37.564Z,13.80
2018-12-26T11:44:37.563Z,13.70
2018-12-26T11:45:37.566Z,14.20
2018-12-26T11:46:37.589Z,14.40
2018-12-26T11:47:37.604Z,14.70
2018-12-26T11:48:37.584Z,14.00
2018-12-26T11:49:37.610Z,17.00
2018-12-26T11:50:37.605Z,14.50
2018-12-26T11:51:37.619Z,16.20
2018-12-26T11:52:37.709Z,15.90
2018-12-26T11:53:37.626Z,15.80
2018-12-26T11:54:37.626Z,15.00
2018-12-26T11:55:37.633Z,14.60
2018-12-26T11:56:37.683Z,16.30
2018-12-26T11:57:37.634Z,15.40
2018-12-26T11:58:38.243Z,16.10
2018-12-26T11:59:37.640Z,15.30
2018-12-26T12:00:39.521Z,15.90
2018-12-26T12:01:37.977Z,16.40
2018-12-26T12:02:37.691Z,17.00
2018-12-26T12:03:37.660Z,17.80
2018-12-26T12:04:37.663Z,16.80
2018-12-26T12:05:37.670Z,15.60
2018-12-26T12:06:37.673Z,16.60
2018-12-26T12:07:37.694Z,16.60
2018-12-26T12:08:37.683Z,18.00
2018-12-26T12:09:37.682Z,16.00
2018-12-26T12:10:37.705Z,16.10
2018-12-26T12:11:38.619Z,14.80
2018-12-26T12:12:37.761Z,15.80
2018-12-26T12:13:37.720Z,14.90
2018-12-26T12:14:37.811Z,14.50
2018-12-26T12:15:37.731Z,15.60
2018-12-26T12:16:37.729Z,15.20
2018-12-26T12:17:37.751Z,15.70
2018-12-26T12:18:37.739Z,15.70
2018-12-26T12:19:37.789Z,15.20
2018-12-26T12:20:37.750Z,16.20
2018-12-26T12:21:37.744Z,16.00
2018-12-26T12:22:37.819Z,15.80
2018-12-26T12:23:37.777Z,16.20
2018-12-26T12:24:37.801Z,16.30
2018-12-26T12:25:37.787Z,17.30
2018-12-26T12:26:37.784Z,15.20
2018-12-26T12:27:37.793Z,14.90
2018-12-26T12:28:37.784Z,15.40
2018-12-26T12:29:38.032Z,15.00
2018-12-26T12:30:37.823Z,15.10
2018-12-26T12:31:37.878Z,15.80
2018-12-26T12:32:37.819Z,15.70
2018-12-26T12:33:37.812Z,15.50
2018-12-26T12:34:37.855Z,15.50
2018-12-26T12:35:37.806Z,15.70
2018-12-26T12:36:37.816Z,16.00
2018-12-26T12:37:37.821Z,16.10
2018-12-26T12:38:37.819Z,16.40
2018-12-26T12:39:37.882Z,16.90
2018-12-26T12:40:37.837Z,16.50
2018-12-26T12:41:37.851Z,17.10
2018-12-26T12:42:37.846Z,18.20
2018-12-26T12:43:37.856Z,16.10
2018-12-26T12:44:37.930Z,15.90
2018-12-26T12:45:37.876Z,17.00
2018-12-26T12:46:37.882Z,20.80
2018-12-26T12:47:37.863Z,16.30
2018-12-26T12:48:37.922Z,17.00
2018-12-26T12:49:37.895Z,17.20
2018-12-26T12:50:37.970Z,16.70
2018-12-26T12:51:37.890Z,16.10
2018-12-26T12:52:37.890Z,16.60
2018-12-26T12:53:37.892Z,17.70
2018-12-26T12:54:37.914Z,17.00
2018-12-26T12:55:37.931Z,15.70
2018-12-26T12:56:38.007Z,16.50
2018-12-26T12:57:37.949Z,16.70
2018-12-26T12:58:37.961Z,15.60
2018-12-26T12:59:44.717Z,16.10